createdAt,value
2019-03-11T00:00:45.185Z,8.30
2019-03-11T00:03:15.502Z,9.13
2019-03-11T00:05:45.786Z,6.70
2019-03-11T00:08:15.962Z,7.67
2019-03-11T00:10:46.128Z,8.40
2019-03-11T00:13:16.842Z,7.10
2019-03-11T00:15:47.910Z,9.63
2019-03-11T00:18:19.089Z,7.73
2019-03-11T00:20:53.307Z,8.67
2019-03-11T00:23:25.529Z,7.30
2019-03-11T00:25:58.396Z,5.97
2019-03-11T00:28:28.671Z,8.03
2019-03-11T00:30:59.787Z,7.27
2019-03-11T00:33:36.459Z,5.43
2019-03-11T00:36:10.531Z,6.63
2019-03-11T00:38:41.586Z,7.23
2019-03-11T00:41:12.577Z,7.57
2019-03-11T00:43:42.933Z,6.93
2019-03-11T00:46:13.198Z,5.23
2019-03-11T00:48:43.798Z,6.83
2019-03-11T00:51:14.157Z,7.97
2019-03-11T00:53:44.371Z,8.07
2019-03-11T00:56:14.864Z,4.30
2019-03-11T00:58:45.715Z,5.23
2019-03-11T01:01:15.858Z,7.07
2019-03-11T01:03:46.061Z,6.33
2019-03-11T01:06:16.084Z,5.27
2019-03-11T01:08:46.289Z,5.80
2019-03-11T01:11:16.843Z,5.57
2019-03-11T01:13:47.360Z,5.10
2019-03-11T01:16:17.502Z,6.23
2019-03-11T01:18:48.830Z,6.20
2019-03-11T01:21:19.041Z,5.23
2019-03-11T01:23:49.347Z,6.07
2019-03-11T01:26:19.484Z,6.53
2019-03-11T01:28:49.609Z,5.53
2019-03-11T01:31:19.780Z,5.13
2019-03-11T01:34:09.979Z,5.37
2019-03-11T01:36:41.783Z,6.10
2019-03-11T01:39:13.028Z,7.07
2019-03-11T01:41:43.378Z,5.30
2019-03-11T01:44:14.314Z,4.57
2019-03-11T01:46:44.443Z,5.07
2019-03-11T01:49:15.216Z,6.10
2019-03-11T01:51:45.508Z,5.27
2019-03-11T01:54:16.736Z,5.23
2019-03-11T01:56:46.752Z,4.97
2019-03-11T01:59:17.048Z,4.77
2019-03-11T02:01:48.468Z,3.97
2019-03-11T02:04:19.894Z,4.13
2019-03-11T02:06:51.235Z,4.43
2019-03-11T02:09:21.386Z,4.30
2019-03-11T02:11:51.609Z,4.17
2019-03-11T02:14:21.894Z,4.17
2019-03-11T02:16:52.824Z,4.97
2019-03-11T02:19:22.921Z,4.93
2019-03-11T02:21:53.007Z,5.20
2019-03-11T02:24:25.668Z,4.07
2019-03-11T02:26:56.138Z,4.93
2019-03-11T02:29:26.894Z,3.73
2019-03-11T02:31:59.735Z,4.53
2019-03-11T02:34:30.985Z,3.30
2019-03-11T02:37:01.439Z,4.50
2019-03-11T02:39:32.346Z,3.37
2019-03-11T02:42:02.894Z,3.77
2019-03-11T02:44:33.531Z,4.37
2019-03-11T02:47:03.874Z,4.70
2019-03-11T02:49:34.686Z,3.40
2019-03-11T02:52:08.617Z,3.70
2019-03-11T02:54:38.832Z,3.83
2019-03-11T02:57:08.986Z,3.73
2019-03-11T02:59:41.790Z,3.30
2019-03-11T03:02:44.317Z,3.87
2019-03-11T03:05:19.727Z,2.83
2019-03-11T03:07:50.332Z,4.13
2019-03-11T03:10:21.993Z,4.50
2019-03-11T03:12:53.694Z,3.43
2019-03-11T03:15:24.677Z,3.80
2019-03-11T03:17:55.034Z,3.63
2019-03-11T03:20:25.301Z,3.10
2019-03-11T03:22:57.066Z,6.20
2019-03-11T03:25:34.517Z,3.40
2019-03-11T03:28:00.568Z,3.87
2019-03-11T03:30:34.296Z,3.70
2019-03-11T03:33:08.227Z,4.50
2019-03-11T03:35:38.674Z,4.27
2019-03-11T03:38:28.862Z,3.27
2019-03-11T03:40:48.593Z,3.20
2019-03-11T03:43:24.930Z,2.97
2019-03-11T03:45:55.250Z,2.80
2019-03-11T03:48:26.663Z,3.07
2019-03-11T03:50:57.150Z,3.40
2019-03-11T03:53:27.488Z,3.33
2019-03-11T03:55:59.436Z,3.67
2019-03-11T03:58:32.214Z,3.03
2019-03-11T04:01:10.529Z,2.90
2019-03-11T04:03:43.174Z,3.43
2019-03-11T04:06:16.398Z,2.63
2019-03-11T04:08:52.878Z,2.77
2019-03-11T04:11:28.049Z,2.50
2019-03-11T04:13:59.522Z,3.40
2019-03-11T04:16:33.086Z,2.60
2019-03-11T04:19:06.814Z,3.03
2019-03-11T04:21:38.540Z,2.70
2019-03-11T04:24:10.633Z,2.40
2019-03-11T04:26:41.638Z,3.13
2019-03-11T04:29:11.846Z,2.97
2019-03-11T04:31:42.348Z,2.87
2019-03-11T04:34:12.622Z,2.47
2019-03-11T04:36:43.607Z,3.30
2019-03-11T04:39:13.799Z,2.97
2019-03-11T04:41:43.928Z,2.67
2019-03-11T04:44:14.282Z,2.17
2019-03-11T04:46:44.415Z,3.10
2019-03-11T04:49:14.585Z,3.87
2019-03-11T04:51:45.070Z,2.97
2019-03-11T04:54:16.228Z,3.00
2019-03-11T04:56:46.406Z,2.47
2019-03-11T04:59:18.028Z,3.07
2019-03-11T05:01:48.289Z,2.57
2019-03-11T05:04:18.497Z,2.53
2019-03-11T05:06:48.579Z,4.23
2019-03-11T05:09:18.581Z,2.53
2019-03-11T05:11:48.967Z,3.40
2019-03-11T05:14:19.191Z,3.37
2019-03-11T05:16:50.069Z,4.20
2019-03-11T05:19:21.373Z,6.57
2019-03-11T05:21:51.775Z,4.63
2019-03-11T05:24:22.046Z,7.80
2019-03-11T05:26:52.823Z,7.60
2019-03-11T05:29:23.010Z,9.73
2019-03-11T05:31:53.298Z,9.53
2019-03-11T05:34:23.449Z,11.23
2019-03-11T05:36:53.630Z,12.73
2019-03-11T05:39:23.922Z,11.20
2019-03-11T05:41:54.041Z,11.40
2019-03-11T05:44:24.845Z,13.40
2019-03-11T05:46:55.181Z,11.20
2019-03-11T05:49:25.441Z,10.93
2019-03-11T05:51:55.617Z,12.27
2019-03-11T05:54:26.926Z,11.17
2019-03-11T05:56:59.070Z,13.33
2019-03-11T05:59:29.014Z,11.87
2019-03-11T06:01:59.264Z,11.80
2019-03-11T06:04:29.547Z,12.00
2019-03-11T06:06:59.986Z,11.57
2019-03-11T06:09:30.140Z,10.93
2019-03-11T06:12:00.157Z,12.97
2019-03-11T06:14:30.590Z,11.70
2019-03-11T06:17:01.818Z,12.27
2019-03-11T06:19:32.782Z,11.53
2019-03-11T06:22:28.888Z,11.70
2019-03-11T06:25:00.350Z,17.17
2019-03-11T06:27:30.941Z,12.03
2019-03-11T06:30:01.142Z,10.77
2019-03-11T06:32:31.388Z,10.20
2019-03-11T06:35:02.275Z,15.33
2019-03-11T06:37:33.211Z,13.63
2019-03-11T06:40:06.010Z,13.43
2019-03-11T06:42:40.075Z,17.37
2019-03-11T06:45:12.262Z,15.33
2019-03-11T06:47:46.976Z,13.13
2019-03-11T06:50:18.141Z,16.00
2019-03-11T06:52:49.032Z,14.17
2019-03-11T06:55:19.214Z,19.50
2019-03-11T06:57:49.748Z,11.80
2019-03-11T07:00:20.294Z,12.20
2019-03-11T07:02:51.311Z,14.17
2019-03-11T07:05:22.131Z,12.97
2019-03-11T07:07:52.554Z,12.17
2019-03-11T07:10:23.014Z,10.13
2019-03-11T07:12:53.638Z,11.00
2019-03-11T07:15:25.452Z,11.27
2019-03-11T07:17:55.895Z,12.93
2019-03-11T07:20:27.035Z,11.13
2019-03-11T07:22:58.236Z,9.03
2019-03-11T07:25:28.663Z,11.60
2019-03-11T07:27:59.218Z,12.03
2019-03-11T07:30:30.031Z,8.30
2019-03-11T07:33:00.307Z,14.60
2019-03-11T07:35:31.401Z,10.10
2019-03-11T07:38:01.729Z,10.73
2019-03-11T07:40:32.470Z,12.77
2019-03-11T07:43:02.706Z,11.07
2019-03-11T07:45:33.279Z,11.80
2019-03-11T07:48:04.428Z,11.67
2019-03-11T07:50:35.248Z,9.10
2019-03-11T07:53:05.849Z,12.00
2019-03-11T07:55:35.894Z,9.00
2019-03-11T07:58:07.532Z,7.63
2019-03-11T08:00:37.879Z,10.53
2019-03-11T08:03:08.363Z,10.53
2019-03-11T08:05:38.570Z,9.67
2019-03-11T08:08:09.093Z,14.83
2019-03-11T08:10:58.654Z,9.10
2019-03-11T08:13:28.926Z,7.60
2019-03-11T08:15:59.497Z,12.57
2019-03-11T08:18:34.930Z,9.20
2019-03-11T08:21:02.472Z,9.90
2019-03-11T08:23:32.560Z,8.67
2019-03-11T08:26:03.818Z,8.97
2019-03-11T08:28:34.157Z,9.20
2019-03-11T08:31:05.383Z,7.73
2019-03-11T08:33:36.219Z,8.07
2019-03-11T08:36:07.142Z,9.60
2019-03-11T08:38:37.929Z,7.97
2019-03-11T08:41:09.169Z,8.90
2019-03-11T08:43:41.182Z,7.83
2019-03-11T08:46:11.706Z,8.73
2019-03-11T08:48:42.403Z,9.20
2019-03-11T08:51:12.830Z,8.43
2019-03-11T08:53:44.712Z,6.77
2019-03-11T08:56:15.582Z,8.40
2019-03-11T08:58:45.847Z,7.33
2019-03-11T09:01:16.303Z,7.47
2019-03-11T09:03:47.895Z,6.83
2019-03-11T09:06:19.094Z,6.83
2019-03-11T09:08:52.706Z,6.73
2019-03-11T09:11:23.191Z,11.47
2019-03-11T09:13:54.310Z,5.97
2019-03-11T09:16:25.522Z,6.37
2019-03-11T09:18:55.951Z,6.20
2019-03-11T09:21:27.934Z,8.47
2019-03-11T09:23:58.704Z,7.87
2019-03-11T09:26:31.112Z,6.30
2019-03-11T09:29:02.720Z,5.60
2019-03-11T09:31:33.073Z,6.03
2019-03-11T09:34:04.575Z,6.40
2019-03-11T09:36:35.377Z,3.97
2019-03-11T09:39:08.739Z,6.00
2019-03-11T09:41:39.168Z,7.27
2019-03-11T09:44:10.071Z,4.30
2019-03-11T09:46:41.121Z,6.20
2019-03-11T09:49:11.381Z,4.93
2019-03-11T09:51:42.093Z,6.70
2019-03-11T09:54:13.059Z,4.60
2019-03-11T09:56:43.908Z,5.13
2019-03-11T09:59:16.258Z,5.83
2019-03-11T10:01:46.511Z,5.63
2019-03-11T10:04:16.759Z,4.90
2019-03-11T10:06:47.991Z,5.70
2019-03-11T10:09:18.383Z,6.00
2019-03-11T10:11:48.583Z,5.53
2019-03-11T10:14:18.919Z,4.87
2019-03-11T10:16:49.383Z,6.30
2019-03-11T10:19:19.755Z,5.23
2019-03-11T10:21:51.434Z,4.27
2019-03-11T10:24:21.798Z,5.40
2019-03-11T10:26:52.601Z,4.30
2019-03-11T10:29:41.862Z,5.90
2019-03-11T10:32:11.946Z,6.27
2019-03-11T10:34:43.771Z,5.67
2019-03-11T10:37:14.129Z,7.07
2019-03-11T10:39:44.334Z,4.63
2019-03-11T10:42:14.719Z,5.40
2019-03-11T10:44:45.135Z,5.03
2019-03-11T10:47:15.870Z,3.83
2019-03-11T10:49:48.244Z,4.80
2019-03-11T10:52:18.585Z,5.17
2019-03-11T10:54:49.441Z,6.00
2019-03-11T10:57:20.202Z,7.07
2019-03-11T10:59:53.451Z,4.10
2019-03-11T11:02:29.245Z,4.83
2019-03-11T11:05:06.784Z,3.33
2019-03-11T11:07:41.585Z,5.60
2019-03-11T11:10:17.977Z,5.17
2019-03-11T11:12:52.809Z,4.20
2019-03-11T11:15:24.131Z,4.27
2019-03-11T11:17:55.885Z,6.77
2019-03-11T11:20:27.453Z,4.60
2019-03-11T11:23:12.471Z,3.87
2019-03-11T11:25:48.051Z,5.23
2019-03-11T11:28:21.746Z,3.77
2019-03-11T11:30:54.252Z,4.73
2019-03-11T11:33:24.768Z,4.23
2019-03-11T11:35:55.322Z,3.50
2019-03-11T11:38:25.954Z,3.77
2019-03-11T11:40:57.314Z,4.87
2019-03-11T11:43:28.157Z,4.33
2019-03-11T11:46:00.014Z,5.20
2019-03-11T11:48:30.896Z,3.77
2019-03-11T11:51:01.216Z,4.27
2019-03-11T11:53:31.689Z,5.87
2019-03-11T11:56:03.417Z,3.33
2019-03-11T11:58:34.263Z,3.90
2019-03-11T12:01:06.020Z,3.03
2019-03-11T12:03:38.396Z,2.93
2019-03-11T12:06:09.774Z,3.67
2019-03-11T12:08:53.788Z,3.97
2019-03-11T12:11:26.902Z,3.73
2019-03-11T12:14:02.210Z,3.27
2019-03-11T12:16:39.039Z,3.83
2019-03-11T12:19:10.881Z,4.63
2019-03-11T12:21:43.389Z,3.63
2019-03-11T12:24:14.436Z,3.93
2019-03-11T12:26:46.218Z,3.83
2019-03-11T12:29:17.457Z,3.83
2019-03-11T12:31:47.974Z,2.80
2019-03-11T12:34:19.674Z,3.93
2019-03-11T12:36:51.051Z,4.03
2019-03-11T12:39:21.463Z,4.10
2019-03-11T12:41:53.902Z,3.10
2019-03-11T12:44:24.387Z,3.83
2019-03-11T12:46:54.951Z,4.07
2019-03-11T12:49:25.289Z,4.33
2019-03-11T12:51:56.058Z,2.53
2019-03-11T12:54:27.182Z,3.50
2019-03-11T12:56:58.011Z,4.07
2019-03-11T12:59:28.357Z,3.47
2019-03-11T13:01:59.101Z,2.90
2019-03-11T13:04:30.699Z,3.00
2019-03-11T13:07:04.677Z,2.87
2019-03-11T13:09:46.966Z,3.43
2019-03-11T13:12:17.526Z,3.30
2019-03-11T13:14:48.558Z,2.87
2019-03-11T13:17:18.982Z,2.70
2019-03-11T13:19:50.433Z,3.03
2019-03-11T13:22:21.334Z,3.60
2019-03-11T13:24:52.443Z,3.67
2019-03-11T13:27:24.332Z,2.73
2019-03-11T13:29:54.705Z,3.23
2019-03-11T13:32:27.121Z,2.93
2019-03-11T13:34:58.104Z,3.53
2019-03-11T13:37:29.855Z,2.57
2019-03-11T13:40:02.887Z,3.50
2019-03-11T13:42:33.474Z,3.60
2019-03-11T13:45:04.845Z,2.97
2019-03-11T13:47:36.018Z,3.03
2019-03-11T13:50:08.376Z,3.17
2019-03-11T13:52:38.792Z,2.63
2019-03-11T13:55:10.994Z,2.17
2019-03-11T13:57:44.123Z,3.20
2019-03-11T14:00:16.651Z,2.70
2019-03-11T14:02:51.119Z,2.97
2019-03-11T14:05:21.799Z,3.00
2019-03-11T14:07:55.079Z,2.53
2019-03-11T14:10:25.625Z,3.27
2019-03-11T14:12:55.943Z,3.03
2019-03-11T14:15:28.000Z,3.53
2019-03-11T14:17:58.256Z,2.77
2019-03-11T14:20:28.576Z,3.33
2019-03-11T14:22:59.026Z,3.57
2019-03-11T14:25:29.372Z,5.03
2019-03-11T14:27:59.753Z,2.93
2019-03-11T14:30:30.316Z,2.93
2019-03-11T14:33:00.804Z,3.47
2019-03-11T14:35:31.254Z,3.50
2019-03-11T14:38:01.797Z,2.97
2019-03-11T14:40:31.734Z,3.00
2019-03-11T14:43:02.010Z,4.97
2019-03-11T14:45:32.298Z,3.33
2019-03-11T14:48:02.471Z,4.50
2019-03-11T14:50:32.967Z,3.73
2019-03-11T14:53:03.297Z,3.13
2019-03-11T14:55:33.669Z,2.77
2019-03-11T14:58:05.236Z,3.47
2019-03-11T15:00:35.816Z,3.63
2019-03-11T15:03:06.088Z,3.57
2019-03-11T15:05:36.285Z,6.13
2019-03-11T15:08:06.508Z,3.40
2019-03-11T15:10:36.530Z,3.27
2019-03-11T15:13:06.569Z,5.40
2019-03-11T15:15:36.657Z,5.63
2019-03-11T15:18:06.635Z,2.60
2019-03-11T15:20:36.791Z,2.97
2019-03-11T15:23:18.953Z,3.10
2019-03-11T15:25:38.595Z,3.47
2019-03-11T15:28:08.479Z,3.50
2019-03-11T15:30:38.541Z,3.20
2019-03-11T15:33:09.600Z,2.73
2019-03-11T15:35:39.718Z,2.60
2019-03-11T15:38:09.915Z,3.63
2019-03-11T15:40:40.159Z,3.57
2019-03-11T15:43:10.247Z,4.10
2019-03-11T15:45:40.458Z,3.80
2019-03-11T15:48:10.794Z,6.33
2019-03-11T15:50:41.324Z,4.50
2019-03-11T15:53:11.652Z,3.13
2019-03-11T15:55:41.907Z,4.03
2019-03-11T15:58:12.137Z,4.43
2019-03-11T16:00:43.943Z,3.30
2019-03-11T16:03:14.130Z,4.77
2019-03-11T16:05:44.633Z,3.53
2019-03-11T16:08:15.289Z,4.23
2019-03-11T16:10:45.514Z,2.63
2019-03-11T16:13:15.826Z,3.70
2019-03-11T16:15:47.058Z,2.77
2019-03-11T16:18:20.122Z,3.57
2019-03-11T16:20:50.125Z,5.40
2019-03-11T16:23:20.687Z,4.30
2019-03-11T16:25:50.946Z,11.07
2019-03-11T16:28:21.119Z,6.30
2019-03-11T16:30:51.688Z,6.13
2019-03-11T16:33:21.989Z,7.43
2019-03-11T16:35:52.143Z,4.57
2019-03-11T16:38:22.233Z,4.30
2019-03-11T16:40:52.250Z,4.73
2019-03-11T16:43:22.531Z,6.23
2019-03-11T16:45:52.494Z,4.60
2019-03-11T16:48:22.533Z,6.77
2019-03-11T16:50:52.613Z,6.63
2019-03-11T16:53:22.720Z,4.27
2019-03-11T16:55:52.764Z,4.90
2019-03-11T16:58:22.993Z,8.23
2019-03-11T17:00:54.014Z,7.40
2019-03-11T17:03:24.091Z,6.13
2019-03-11T17:05:54.253Z,7.17
2019-03-11T17:08:24.302Z,7.13
2019-03-11T17:10:54.525Z,7.10
2019-03-11T17:13:24.582Z,5.77
2019-03-11T17:15:54.822Z,8.63
2019-03-11T17:18:24.845Z,12.90
2019-03-11T17:20:55.053Z,10.00
2019-03-11T17:23:25.263Z,13.13
2019-03-11T17:25:55.241Z,8.37
2019-03-11T17:28:25.479Z,12.87
2019-03-11T17:30:55.542Z,8.40
2019-03-11T17:33:25.484Z,6.10
2019-03-11T17:35:55.483Z,7.30
2019-03-11T17:38:25.579Z,5.63
2019-03-11T17:40:55.732Z,7.67
2019-03-11T17:43:25.701Z,6.30
2019-03-11T17:45:56.957Z,6.10
2019-03-11T17:48:27.092Z,8.40
2019-03-11T17:50:57.443Z,9.20
2019-03-11T17:53:27.650Z,7.00
2019-03-11T17:55:58.338Z,6.53
2019-03-11T17:58:28.618Z,11.07
2019-03-11T18:00:58.901Z,6.43
2019-03-11T18:03:29.005Z,11.57
2019-03-11T18:05:59.186Z,6.40
2019-03-11T18:08:29.274Z,10.50
2019-03-11T18:10:59.804Z,5.73
2019-03-11T18:13:30.057Z,9.57
2019-03-11T18:16:00.048Z,8.53
2019-03-11T18:18:33.286Z,7.17
2019-03-11T18:21:02.192Z,6.77
2019-03-11T18:23:32.462Z,12.90
2019-03-11T18:26:02.664Z,7.83
2019-03-11T18:28:32.922Z,8.90
2019-03-11T18:31:02.987Z,9.60
2019-03-11T18:33:33.681Z,7.27
2019-03-11T18:36:03.897Z,13.43
2019-03-11T18:38:33.945Z,8.70
2019-03-11T18:41:04.253Z,8.13
2019-03-11T18:43:42.583Z,10.13
2019-03-11T18:46:06.208Z,8.37
2019-03-11T18:48:37.396Z,8.87
2019-03-11T18:51:11.116Z,8.43
2019-03-11T18:53:39.210Z,9.07
2019-03-11T18:56:09.292Z,10.53
2019-03-11T18:58:39.382Z,9.37
2019-03-11T19:01:09.486Z,9.60
2019-03-11T19:03:39.705Z,9.27
2019-03-11T19:06:09.893Z,8.53
2019-03-11T19:08:40.642Z,9.30
2019-03-11T19:11:10.750Z,10.50
2019-03-11T19:13:41.008Z,10.50
2019-03-11T19:16:11.108Z,10.63
2019-03-11T19:18:41.452Z,8.73
2019-03-11T19:21:12.986Z,17.70
2019-03-11T19:23:44.499Z,11.13
2019-03-11T19:26:14.701Z,12.57
2019-03-11T19:28:49.435Z,8.87
2019-03-11T19:31:21.189Z,11.93
2019-03-11T19:33:51.524Z,9.63
2019-03-11T19:36:21.858Z,14.00
2019-03-11T19:38:51.943Z,11.23
2019-03-11T19:41:22.443Z,11.37
2019-03-11T19:43:52.793Z,12.77
2019-03-11T19:46:24.085Z,16.37
2019-03-11T19:48:55.123Z,13.37
2019-03-11T19:51:25.230Z,11.33
2019-03-11T19:53:56.897Z,10.10
2019-03-11T19:56:27.228Z,24.87
2019-03-11T19:58:59.710Z,24.30
2019-03-11T20:01:29.656Z,11.63
2019-03-11T20:04:01.288Z,17.33
2019-03-11T20:06:31.525Z,15.27
2019-03-11T20:09:01.956Z,11.43
2019-03-11T20:11:33.809Z,18.43
2019-03-11T20:14:04.442Z,13.20
2019-03-11T20:16:34.777Z,13.43
2019-03-11T20:19:05.016Z,13.30
2019-03-11T20:21:35.519Z,10.57
2019-03-11T20:24:06.708Z,13.73
2019-03-11T20:26:37.295Z,15.60
2019-03-11T20:29:08.183Z,16.27
2019-03-11T20:31:41.498Z,10.30
2019-03-11T20:34:12.136Z,16.17
2019-03-11T20:36:42.393Z,10.50
2019-03-11T20:39:13.341Z,11.23
2019-03-11T20:41:45.514Z,14.47
2019-03-11T20:44:15.783Z,14.07
2019-03-11T20:46:48.395Z,12.93
2019-03-11T20:49:18.698Z,21.13
2019-03-11T20:51:49.493Z,10.80
2019-03-11T20:54:20.200Z,13.47
2019-03-11T20:56:53.376Z,15.77
2019-03-11T20:59:25.186Z,10.33
2019-03-11T21:01:55.642Z,13.87
2019-03-11T21:04:26.538Z,10.50
2019-03-11T21:06:57.267Z,11.73
2019-03-11T21:09:27.623Z,10.40
2019-03-11T21:12:03.515Z,11.40
2019-03-11T21:14:33.861Z,14.57
2019-03-11T21:17:26.919Z,12.47
2019-03-11T21:19:59.973Z,14.47
2019-03-11T21:22:33.637Z,17.23
2019-03-11T21:25:04.909Z,14.40
2019-03-11T21:27:40.168Z,12.33
2019-03-11T21:30:12.980Z,10.40
2019-03-11T21:32:43.068Z,14.00
2019-03-11T21:35:13.506Z,10.37
2019-03-11T21:37:47.597Z,12.57
2019-03-11T21:40:18.094Z,14.87
2019-03-11T21:42:48.468Z,9.47
2019-03-11T21:45:18.896Z,11.73
2019-03-11T21:47:51.157Z,9.40
2019-03-11T21:50:22.046Z,11.97
2019-03-11T21:52:52.425Z,11.37
2019-03-11T21:55:22.913Z,14.10
2019-03-11T21:57:53.522Z,9.90
2019-03-11T22:00:33.926Z,8.77
2019-03-11T22:02:56.024Z,10.43
2019-03-11T22:05:29.059Z,12.80
2019-03-11T22:07:59.331Z,9.53
2019-03-11T22:10:31.089Z,9.70
2019-03-11T22:13:02.378Z,10.53
2019-03-11T22:15:34.454Z,12.60
2019-03-11T22:18:07.582Z,9.00
2019-03-11T22:20:38.787Z,7.90
2019-03-11T22:23:09.343Z,10.60
2019-03-11T22:25:39.638Z,9.90
2019-03-11T22:28:10.896Z,8.90
2019-03-11T22:30:41.203Z,8.77
2019-03-11T22:33:13.813Z,8.83
2019-03-11T22:35:44.766Z,10.37
2019-03-11T22:38:16.095Z,9.83
2019-03-11T22:40:46.418Z,12.03
2019-03-11T22:43:16.753Z,7.73
2019-03-11T22:45:47.971Z,9.33
2019-03-11T22:48:20.769Z,8.93
2019-03-11T22:50:51.711Z,8.30
2019-03-11T22:53:22.011Z,8.67
2019-03-11T22:55:53.446Z,7.13
2019-03-11T22:58:23.891Z,10.63
2019-03-11T23:01:00.489Z,8.73
2019-03-11T23:03:32.548Z,8.50
2019-03-11T23:06:05.048Z,7.27
2019-03-11T23:08:35.572Z,8.13
2019-03-11T23:11:07.078Z,6.97
2019-03-11T23:13:37.351Z,7.57
2019-03-11T23:16:07.641Z,7.67
2019-03-11T23:18:43.976Z,7.73
2019-03-11T23:21:14.362Z,8.97
2019-03-11T23:23:44.416Z,8.00
2019-03-11T23:26:14.535Z,6.63
2019-03-11T23:28:44.906Z,7.43
2019-03-11T23:31:17.047Z,7.90
2019-03-11T23:33:47.549Z,8.87
2019-03-11T23:36:18.236Z,8.03
2019-03-11T23:38:49.438Z,8.57
2019-03-11T23:41:19.734Z,7.80
2019-03-11T23:43:50.486Z,9.00
2019-03-11T23:46:20.734Z,9.17
2019-03-11T23:48:51.321Z,6.83
2019-03-11T23:51:21.494Z,8.07
2019-03-11T23:53:53.454Z,7.67
2019-03-11T23:56:23.626Z,8.77
2019-03-11T23:58:56.150Z,7.03
